createdAt,value
2019-02-21T00:01:05.376Z,73.37
2019-02-21T00:03:34.174Z,73.69
2019-02-21T00:06:02.940Z,73.33
2019-02-21T00:08:31.660Z,73.97
2019-02-21T00:11:00.493Z,74.11
2019-02-21T00:13:29.264Z,74.34
2019-02-21T00:15:58.027Z,74.49
2019-02-21T00:18:26.747Z,74.67
2019-02-21T00:20:55.480Z,74.68
2019-02-21T00:23:24.156Z,74.67
2019-02-21T00:25:55.663Z,74.67
2019-02-21T00:28:23.380Z,74.59
2019-02-21T00:30:52.061Z,74.59
2019-02-21T00:33:20.721Z,75.18
2019-02-21T00:35:49.427Z,75.40
2019-02-21T00:38:18.007Z,75.22
2019-02-21T00:40:46.662Z,75.63
2019-02-21T00:43:15.399Z,75.91
2019-02-21T00:45:44.006Z,76.00
2019-02-21T00:48:12.722Z,76.34
2019-02-21T00:50:41.446Z,76.21
2019-02-21T00:53:10.184Z,76.19
2019-02-21T00:55:38.885Z,76.37
2019-02-21T00:58:07.611Z,76.39
2019-02-21T01:00:46.172Z,76.57
2019-02-21T01:03:06.939Z,76.99
2019-02-21T01:05:35.643Z,76.83
2019-02-21T01:08:05.344Z,76.95
2019-02-21T01:10:33.967Z,76.92
2019-02-21T01:13:02.625Z,76.81
2019-02-21T01:15:31.435Z,77.34
2019-02-21T01:18:00.057Z,77.38
2019-02-21T01:20:28.777Z,77.72
2019-02-21T01:22:57.454Z,78.14
2019-02-21T01:25:26.171Z,78.24
2019-02-21T01:27:54.961Z,78.24
2019-02-21T01:30:23.567Z,78.26
2019-02-21T01:32:52.299Z,78.48
2019-02-21T01:35:20.993Z,78.34
2019-02-21T01:37:49.673Z,78.42
2019-02-21T01:40:18.443Z,78.57
2019-02-21T01:42:47.106Z,78.60
2019-02-21T01:45:15.791Z,78.57
2019-02-21T01:47:44.365Z,78.67
2019-02-21T01:50:13.121Z,78.85
2019-02-21T01:52:41.705Z,79.24
2019-02-21T01:55:10.349Z,79.38
2019-02-21T01:57:39.062Z,79.32
2019-02-21T02:00:10.818Z,79.31
2019-02-21T02:02:39.630Z,79.41
2019-02-21T02:05:09.116Z,79.60
2019-02-21T02:07:38.923Z,79.96
2019-02-21T02:10:10.488Z,80.00
2019-02-21T02:12:39.178Z,80.16
2019-02-21T02:15:10.517Z,80.44
2019-02-21T02:17:39.329Z,80.80
2019-02-21T02:20:09.233Z,81.00
2019-02-21T02:22:38.050Z,81.28
2019-02-21T02:25:07.366Z,81.36
2019-02-21T02:27:35.921Z,81.64
2019-02-21T02:30:06.550Z,81.90
2019-02-21T02:32:35.246Z,81.88
2019-02-21T02:35:04.463Z,81.96
2019-02-21T02:37:33.176Z,82.01
2019-02-21T02:40:02.020Z,82.24
2019-02-21T02:42:30.697Z,82.49
2019-02-21T02:44:59.329Z,82.64
2019-02-21T02:47:28.101Z,82.78
2019-02-21T02:49:56.820Z,82.79
2019-02-21T02:52:25.585Z,82.92
2019-02-21T02:54:54.315Z,83.22
2019-02-21T02:57:22.946Z,83.39
2019-02-21T02:59:51.789Z,83.71
2019-02-21T03:02:20.403Z,83.72
2019-02-21T03:04:49.167Z,83.79
2019-02-21T03:07:17.855Z,83.62
2019-02-21T03:09:46.576Z,83.64
2019-02-21T03:12:15.154Z,83.82
2019-02-21T03:14:43.870Z,84.16
2019-02-21T03:17:12.518Z,84.16
2019-02-21T03:19:41.239Z,84.48
2019-02-21T03:22:10.082Z,84.63
2019-02-21T03:24:38.754Z,84.63
2019-02-21T03:27:07.472Z,84.84
2019-02-21T03:29:36.237Z,84.99
2019-02-21T03:32:05.520Z,85.08
2019-02-21T03:34:34.215Z,85.21
2019-02-21T03:37:02.888Z,85.16
2019-02-21T03:39:31.516Z,85.31
2019-02-21T03:42:00.387Z,85.46
2019-02-21T03:44:29.049Z,85.55
2019-02-21T03:46:57.774Z,85.52
2019-02-21T03:49:28.498Z,85.92
2019-02-21T03:51:57.207Z,85.85
2019-02-21T03:54:25.902Z,85.57
2019-02-21T03:56:54.598Z,85.48
2019-02-21T03:59:23.302Z,85.55
2019-02-21T04:01:52.063Z,85.38
2019-02-21T04:04:20.796Z,85.56
2019-02-21T04:06:49.513Z,85.49
2019-02-21T04:09:18.236Z,85.25
2019-02-21T04:11:47.072Z,85.27
2019-02-21T04:14:15.937Z,85.53
2019-02-21T04:16:44.696Z,85.28
2019-02-21T04:19:13.404Z,85.23
2019-02-21T04:21:42.002Z,85.14
2019-02-21T04:24:10.962Z,85.17
2019-02-21T04:26:39.689Z,85.25
2019-02-21T04:29:08.492Z,85.46
2019-02-21T04:31:37.068Z,85.31
2019-02-21T04:34:05.590Z,85.23
2019-02-21T04:36:34.348Z,85.40
2019-02-21T04:39:03.753Z,85.50
2019-02-21T04:41:32.417Z,85.49
2019-02-21T04:44:03.818Z,85.48
2019-02-21T04:46:31.475Z,85.54
2019-02-21T04:49:00.234Z,85.65
2019-02-21T04:51:28.882Z,85.61
2019-02-21T04:53:57.682Z,85.61
2019-02-21T04:56:26.371Z,85.40
2019-02-21T04:58:55.113Z,85.63
2019-02-21T05:01:23.967Z,85.46
2019-02-21T05:03:52.654Z,85.17
2019-02-21T05:06:21.303Z,85.25
2019-02-21T05:08:49.931Z,85.13
2019-02-21T05:11:18.792Z,85.02
2019-02-21T05:13:49.300Z,84.94
2019-02-21T05:16:17.935Z,84.69
2019-02-21T05:18:46.719Z,84.94
2019-02-21T05:21:17.175Z,84.73
2019-02-21T05:23:45.938Z,84.79
2019-02-21T05:26:16.243Z,84.95
2019-02-21T05:28:45.543Z,84.94
2019-02-21T05:31:16.214Z,85.08
2019-02-21T05:33:46.592Z,85.11
2019-02-21T05:36:33.262Z,85.07
2019-02-21T05:39:06.338Z,84.98
2019-02-21T05:41:51.588Z,85.03
2019-02-21T05:44:21.853Z,85.20
2019-02-21T05:47:08.368Z,85.14
2019-02-21T05:49:38.587Z,85.23
2019-02-21T05:52:14.733Z,85.25
2019-02-21T05:54:51.443Z,85.00
2019-02-21T05:57:21.746Z,85.38
2019-02-21T05:59:58.170Z,85.33
2019-02-21T06:02:31.299Z,84.94
2019-02-21T06:05:15.212Z,84.83
2019-02-21T06:07:48.199Z,84.93
2019-02-21T06:10:18.833Z,84.70
2019-02-21T06:12:55.212Z,84.65
2019-02-21T06:15:25.953Z,84.53
2019-02-21T06:17:58.869Z,84.58
2019-02-21T06:20:30.256Z,84.39
2019-02-21T06:23:06.576Z,84.14
2019-02-21T06:25:58.273Z,84.17
2019-02-21T06:28:31.200Z,84.35
2019-02-21T06:31:01.500Z,84.18
2019-02-21T06:33:30.158Z,84.41
2019-02-21T06:35:58.780Z,84.30
2019-02-21T06:38:27.540Z,84.09
2019-02-21T06:40:56.426Z,84.09
2019-02-21T06:43:25.178Z,83.87
2019-02-21T06:45:53.913Z,83.79
2019-02-21T06:48:22.623Z,83.52
2019-02-21T06:50:51.390Z,83.65
2019-02-21T06:53:20.099Z,83.21
2019-02-21T06:55:48.832Z,82.69
2019-02-21T06:58:17.751Z,82.90
2019-02-21T07:00:46.449Z,83.04
2019-02-21T07:03:16.142Z,82.75
2019-02-21T07:05:45.052Z,82.48
2019-02-21T07:08:13.849Z,82.91
2019-02-21T07:10:42.444Z,82.95
2019-02-21T07:13:11.158Z,82.74
2019-02-21T07:15:39.817Z,83.01
2019-02-21T07:18:11.034Z,83.04
2019-02-21T07:20:39.779Z,82.06
2019-02-21T07:23:11.197Z,82.37
2019-02-21T07:25:46.308Z,82.39
2019-02-21T07:28:16.114Z,82.39
2019-02-21T07:30:46.255Z,82.10
2019-02-21T07:33:14.914Z,82.03
2019-02-21T07:35:43.667Z,82.28
2019-02-21T07:38:12.421Z,81.95
2019-02-21T07:40:41.157Z,81.83
2019-02-21T07:43:12.598Z,82.30
2019-02-21T07:45:40.367Z,82.31
2019-02-21T07:48:09.006Z,82.27
2019-02-21T07:50:37.781Z,82.45
2019-02-21T07:53:06.458Z,82.34
2019-02-21T07:55:35.223Z,82.07
2019-02-21T07:58:04.122Z,82.00
2019-02-21T08:00:33.408Z,82.45
2019-02-21T08:03:02.140Z,81.93
2019-02-21T08:05:30.880Z,82.00
2019-02-21T08:07:59.643Z,82.19
2019-02-21T08:10:33.674Z,82.13
2019-02-21T08:12:58.743Z,82.01
2019-02-21T08:15:27.828Z,81.84
2019-02-21T08:17:56.612Z,81.31
2019-02-21T08:20:33.571Z,81.56
2019-02-21T08:22:55.810Z,81.33
2019-02-21T08:25:24.550Z,81.10
2019-02-21T08:27:53.259Z,80.70
2019-02-21T08:30:21.968Z,81.19
2019-02-21T08:33:01.130Z,81.16
2019-02-21T08:35:31.414Z,81.32
2019-02-21T08:38:00.145Z,81.27
2019-02-21T08:40:28.911Z,81.04
2019-02-21T08:42:57.616Z,80.91
2019-02-21T08:45:26.321Z,80.88
2019-02-21T08:47:55.023Z,80.62
2019-02-21T08:50:23.659Z,80.01
2019-02-21T08:52:52.316Z,80.32
2019-02-21T08:55:21.194Z,79.83
2019-02-21T08:57:49.850Z,80.21
2019-02-21T09:00:18.493Z,79.78
2019-02-21T09:02:47.166Z,80.09
2019-02-21T09:05:17.385Z,79.99
2019-02-21T09:07:46.649Z,80.14
2019-02-21T09:10:15.380Z,80.26
2019-02-21T09:12:48.191Z,80.02
2019-02-21T09:15:17.833Z,79.85
2019-02-21T09:17:46.460Z,79.47
2019-02-21T09:20:15.249Z,79.30
2019-02-21T09:22:43.929Z,79.17
2019-02-21T09:25:14.253Z,79.10
2019-02-21T09:27:42.929Z,78.86
2019-02-21T09:30:19.190Z,78.68
2019-02-21T09:32:48.012Z,78.51
2019-02-21T09:35:16.674Z,77.90
2019-02-21T09:37:45.357Z,77.58
2019-02-21T09:40:15.257Z,77.83
2019-02-21T09:42:44.009Z,77.75
2019-02-21T09:45:19.998Z,77.79
2019-02-21T09:47:48.730Z,77.12
2019-02-21T09:50:17.439Z,77.06
2019-02-21T09:52:46.188Z,76.65
2019-02-21T09:55:17.517Z,76.30
2019-02-21T09:57:46.205Z,76.00
2019-02-21T10:00:17.604Z,76.04
2019-02-21T10:02:46.441Z,75.82
2019-02-21T10:05:15.077Z,75.29
2019-02-21T10:07:43.767Z,75.22
2019-02-21T10:10:17.930Z,75.78
2019-02-21T10:12:46.607Z,77.12
2019-02-21T10:15:17.642Z,78.82
2019-02-21T10:17:46.336Z,81.32
2019-02-21T10:20:22.828Z,83.50
2019-02-21T10:22:51.583Z,85.40
2019-02-21T10:25:25.874Z,87.05
2019-02-21T10:27:54.618Z,88.14
2019-02-21T10:30:23.973Z,88.68
2019-02-21T10:32:52.665Z,89.42
2019-02-21T10:35:21.381Z,90.18
2019-02-21T10:37:50.055Z,91.20
2019-02-21T10:42:39.224Z,91.50
2019-02-21T10:45:13.374Z,92.15
2019-02-21T10:47:41.996Z,93.00
2019-02-21T10:50:14.311Z,93.29
2019-02-21T10:52:43.309Z,92.86
2019-02-21T10:55:11.942Z,93.37
2019-02-21T10:57:41.387Z,92.65
2019-02-21T11:00:36.042Z,92.45
2019-02-21T11:03:05.252Z,92.42
2019-02-21T11:05:33.983Z,92.58
2019-02-21T11:08:02.799Z,92.73
2019-02-21T11:10:31.813Z,92.39
2019-02-21T11:13:01.142Z,90.42
2019-02-21T11:15:30.263Z,90.58
2019-02-21T11:17:58.904Z,90.49
2019-02-21T11:20:27.775Z,90.87
2019-02-21T11:22:56.448Z,90.46
2019-02-21T11:25:25.219Z,90.87
2019-02-21T11:27:53.855Z,90.32
2019-02-21T11:30:23.093Z,90.11
2019-02-21T11:32:51.829Z,91.17
2019-02-21T11:35:20.470Z,91.50
2019-02-21T11:37:49.232Z,90.95
2019-02-21T11:40:19.913Z,89.88
2019-02-21T11:42:49.301Z,89.93
2019-02-21T11:45:20.672Z,90.06
2019-02-21T11:47:49.620Z,89.23
2019-02-21T11:50:20.092Z,88.88
2019-02-21T11:52:48.804Z,88.08
2019-02-21T11:55:39.522Z,87.61
2019-02-21T11:58:08.305Z,88.09
2019-02-21T12:00:38.989Z,87.42
2019-02-21T12:03:07.808Z,86.24
2019-02-21T12:05:37.288Z,86.58
2019-02-21T12:08:06.091Z,87.22
2019-02-21T12:10:34.971Z,86.40
2019-02-21T12:13:03.593Z,86.27
2019-02-21T12:15:32.237Z,86.62
2019-02-21T12:18:11.992Z,86.32
2019-02-21T12:20:40.667Z,86.44
2019-02-21T12:23:09.412Z,86.00
2019-02-21T12:25:38.143Z,85.19
2019-02-21T12:28:06.960Z,85.03
2019-02-21T12:30:35.664Z,85.38
2019-02-21T12:33:05.199Z,85.16
2019-02-21T12:35:47.008Z,84.19
2019-02-21T12:38:15.739Z,83.88
2019-02-21T12:40:44.434Z,83.12
2019-02-21T12:43:14.261Z,83.25
2019-02-21T12:45:43.249Z,82.42
2019-02-21T12:48:12.451Z,82.35
2019-02-21T12:50:44.558Z,82.60
2019-02-21T12:53:12.613Z,81.25
2019-02-21T12:55:41.700Z,81.84
2019-02-21T12:58:10.489Z,81.33
2019-02-21T13:00:39.232Z,81.44
2019-02-21T13:03:08.317Z,81.37
2019-02-21T13:05:41.059Z,80.68
2019-02-21T13:08:08.014Z,81.48
2019-02-21T13:10:37.146Z,80.94
2019-02-21T13:13:06.715Z,80.67
2019-02-21T13:15:35.927Z,81.09
2019-02-21T13:18:15.825Z,80.90
2019-02-21T13:20:44.202Z,80.79
2019-02-21T13:23:13.045Z,80.44
2019-02-21T13:25:41.860Z,80.25
2019-02-21T13:28:11.635Z,79.18
2019-02-21T13:30:40.697Z,79.81
2019-02-21T13:33:09.811Z,79.16
2019-02-21T13:35:38.736Z,79.27
2019-02-21T13:38:07.913Z,79.40
2019-02-21T13:40:36.930Z,78.95
2019-02-21T13:43:06.095Z,79.13
2019-02-21T13:45:35.208Z,78.67
2019-02-21T13:48:04.346Z,78.77
2019-02-21T13:50:33.501Z,78.40
2019-02-21T13:53:02.648Z,78.12
2019-02-21T13:55:31.762Z,78.58
2019-02-21T13:58:00.759Z,79.35
2019-02-21T14:00:30.700Z,80.00
2019-02-21T14:02:59.666Z,80.21
2019-02-21T14:05:31.335Z,80.22
2019-02-21T14:08:00.490Z,80.21
2019-02-21T14:10:29.921Z,80.29
2019-02-21T14:12:59.045Z,80.38
2019-02-21T14:15:32.101Z,80.31
2019-02-21T14:18:00.893Z,80.75
2019-02-21T14:20:29.824Z,81.12
2019-02-21T14:22:58.992Z,81.21
2019-02-21T14:25:33.077Z,81.79
2019-02-21T14:27:59.040Z,82.11
2019-02-21T14:30:28.363Z,82.38
2019-02-21T14:32:57.197Z,82.19
2019-02-21T14:35:26.245Z,82.09
2019-02-21T14:37:55.310Z,82.54
2019-02-21T14:40:25.046Z,83.10
2019-02-21T14:42:53.807Z,83.34
2019-02-21T14:45:28.237Z,83.12
2019-02-21T14:47:57.910Z,83.38
2019-02-21T14:50:26.718Z,83.69
2019-02-21T14:52:55.471Z,84.32
2019-02-21T14:55:24.265Z,85.11
2019-02-21T14:57:52.985Z,85.81
2019-02-21T15:00:32.436Z,86.85
2019-02-21T15:03:05.639Z,87.35
2019-02-21T15:05:34.377Z,87.56
2019-02-21T15:08:03.025Z,87.75
2019-02-21T15:10:31.922Z,87.73
2019-02-21T15:13:00.571Z,87.59
2019-02-21T15:15:29.272Z,87.45
2019-02-21T15:18:06.868Z,87.29
2019-02-21T15:20:36.250Z,87.07
2019-02-21T15:22:58.905Z,87.00
2019-02-21T15:25:27.545Z,86.56
2019-02-21T15:27:56.381Z,86.52
2019-02-21T15:30:26.547Z,86.33
2019-02-21T15:32:55.272Z,86.19
2019-02-21T15:35:23.997Z,85.61
2019-02-21T15:37:52.627Z,85.37
2019-02-21T15:40:21.337Z,85.26
2019-02-21T15:42:52.560Z,85.18
2019-02-21T15:45:24.321Z,85.27
2019-02-21T15:47:53.856Z,85.36
2019-02-21T15:50:22.574Z,85.58
2019-02-21T15:52:53.824Z,85.81
2019-02-21T15:55:35.378Z,86.31
2019-02-21T15:58:19.958Z,86.61
2019-02-21T16:01:03.681Z,86.82
2019-02-21T16:03:33.632Z,87.00
2019-02-21T16:06:02.210Z,87.00
2019-02-21T16:08:31.084Z,86.87
2019-02-21T16:10:59.864Z,86.82
2019-02-21T16:13:28.873Z,86.84
2019-02-21T16:16:12.817Z,87.35
2019-02-21T16:18:42.563Z,88.11
2019-02-21T16:21:11.359Z,89.42
2019-02-21T16:23:40.094Z,90.88
2019-02-21T16:26:08.846Z,91.81
2019-02-21T16:28:37.496Z,92.33
2019-02-21T16:31:06.237Z,93.21
2019-02-21T16:33:35.011Z,93.95
2019-02-21T16:36:03.802Z,94.52
2019-02-21T16:38:33.284Z,94.95
2019-02-21T16:41:02.013Z,95.37
2019-02-21T16:43:30.729Z,95.81
2019-02-21T16:46:07.896Z,96.05
2019-02-21T16:48:31.042Z,96.19
2019-02-21T16:51:01.292Z,96.34
2019-02-21T16:53:30.752Z,96.50
2019-02-21T16:55:59.682Z,96.47
2019-02-21T16:58:28.472Z,96.52
2019-02-21T17:00:58.459Z,96.68
2019-02-21T17:03:27.196Z,96.88
2019-02-21T17:05:56.330Z,96.82
2019-02-21T17:08:25.008Z,96.76
2019-02-21T17:10:54.331Z,96.98
2019-02-21T17:13:23.865Z,97.13
2019-02-21T17:15:53.023Z,97.18
2019-02-21T17:18:24.123Z,97.44
2019-02-21T17:20:55.389Z,97.63
2019-02-21T17:23:24.385Z,97.80
2019-02-21T17:25:53.978Z,97.74
2019-02-21T17:28:22.778Z,97.65
2019-02-21T17:30:52.149Z,97.44
2019-02-21T17:33:21.765Z,97.46
2019-02-21T17:35:50.588Z,97.55
2019-02-21T17:38:19.374Z,97.63
2019-02-21T17:40:57.101Z,97.73
2019-02-21T17:43:25.824Z,97.97
2019-02-21T17:45:56.878Z,98.00
2019-02-21T17:48:31.599Z,98.05
2019-02-21T17:51:01.044Z,98.07
2019-02-21T17:53:29.830Z,98.04
2019-02-21T17:55:58.901Z,98.10
2019-02-21T17:58:27.714Z,98.28
2019-02-21T18:00:56.567Z,98.46
2019-02-21T18:03:25.222Z,98.52
2019-02-21T18:05:56.034Z,98.47
2019-02-21T18:08:24.500Z,98.50
2019-02-21T18:10:53.194Z,98.53
2019-02-21T18:13:21.951Z,98.59
2019-02-21T18:15:54.504Z,98.66
2019-02-21T18:18:25.534Z,98.66
2019-02-21T18:20:55.260Z,98.58
2019-02-21T18:23:24.675Z,98.66
2019-02-21T18:26:00.771Z,98.90
2019-02-21T18:28:30.607Z,98.90
2019-02-21T18:31:00.142Z,98.98
2019-02-21T18:33:39.157Z,99.10
2019-02-21T18:36:11.611Z,99.14
2019-02-21T18:38:40.306Z,99.21
2019-02-21T18:41:13.490Z,99.26
2019-02-21T18:43:56.946Z,99.24
2019-02-21T18:46:26.762Z,99.15
2019-02-21T18:48:55.481Z,99.10
2019-02-21T18:51:24.148Z,99.14
2019-02-21T18:53:52.854Z,99.14
2019-02-21T18:56:24.869Z,99.12
2019-02-21T18:58:55.021Z,99.20
2019-02-21T19:01:24.380Z,99.29
2019-02-21T19:03:57.677Z,99.36
2019-02-21T19:06:27.364Z,99.42
2019-02-21T19:08:56.251Z,99.48
2019-02-21T19:11:25.415Z,99.60
2019-02-21T19:13:54.772Z,99.65
2019-02-21T19:16:26.164Z,99.68
2019-02-21T19:18:54.982Z,99.75
2019-02-21T19:21:23.707Z,99.84
2019-02-21T19:23:52.506Z,99.85
2019-02-21T19:26:21.291Z,99.87
2019-02-21T19:28:50.106Z,99.88
2019-02-21T19:31:21.644Z,99.81
2019-02-21T19:33:50.344Z,99.88
2019-02-21T19:36:19.163Z,99.94
2019-02-21T19:38:49.179Z,100.00
2019-02-21T19:41:18.340Z,100.00
2019-02-21T19:43:51.396Z,100.00
2019-02-21T19:46:21.439Z,100.00
2019-02-21T19:48:51.179Z,100.00
2019-02-21T19:51:20.898Z,100.00
2019-02-21T19:53:53.524Z,100.00
2019-02-21T19:56:22.466Z,100.00
2019-02-21T19:58:51.232Z,100.00
2019-02-21T20:01:20.017Z,100.00
2019-02-21T20:03:52.131Z,100.00
2019-02-21T20:06:25.314Z,100.00
2019-02-21T20:08:55.635Z,100.00
2019-02-21T20:11:24.988Z,100.00
2019-02-21T20:13:56.257Z,100.00
2019-02-21T20:16:25.053Z,100.00
2019-02-21T20:18:55.442Z,100.00
2019-02-21T20:21:24.128Z,100.00
2019-02-21T20:23:52.759Z,100.00
2019-02-21T20:26:21.483Z,100.00
2019-02-21T20:28:50.223Z,100.00
2019-02-21T20:31:18.958Z,100.00
2019-02-21T20:33:47.671Z,100.00
2019-02-21T20:36:16.477Z,100.00
2019-02-21T20:38:45.194Z,100.00
2019-02-21T20:41:13.899Z,100.00
2019-02-21T20:43:42.661Z,100.00
2019-02-21T20:46:11.295Z,100.00
2019-02-21T20:48:39.914Z,100.00
2019-02-21T20:51:08.675Z,100.00
2019-02-21T20:53:37.414Z,100.00
2019-02-21T20:56:06.353Z,100.00
2019-02-21T20:58:35.243Z,100.00
2019-02-21T21:01:07.247Z,100.00
2019-02-21T21:03:38.629Z,100.00
2019-02-21T21:06:07.515Z,100.00
2019-02-21T21:08:43.194Z,100.00
2019-02-21T21:11:11.543Z,100.00
2019-02-21T21:13:40.567Z,100.00
2019-02-21T21:16:09.316Z,100.00
2019-02-21T21:18:38.017Z,100.00
2019-02-21T21:21:12.777Z,100.00
2019-02-21T21:23:41.516Z,100.00
2019-02-21T21:26:11.184Z,100.00
2019-02-21T21:28:39.967Z,100.00
2019-02-21T21:31:08.720Z,100.00
2019-02-21T21:33:37.432Z,100.00
2019-02-21T21:36:06.159Z,100.00
2019-02-21T21:38:35.005Z,100.00
2019-02-21T21:41:03.816Z,100.00
2019-02-21T21:43:32.513Z,100.00
2019-02-21T21:46:01.423Z,100.00
2019-02-21T21:48:34.187Z,100.00
2019-02-21T21:51:03.794Z,100.00
2019-02-21T21:53:33.591Z,100.00
2019-02-21T21:56:02.784Z,100.00
2019-02-21T21:58:32.842Z,100.00
2019-02-21T22:01:04.888Z,100.00
2019-02-21T22:03:36.623Z,100.00
2019-02-21T22:06:11.977Z,100.00
2019-02-21T22:08:46.825Z,100.00
2019-02-21T22:11:17.062Z,100.00
2019-02-21T22:13:46.648Z,100.00
2019-02-21T22:16:19.014Z,100.00
2019-02-21T22:18:49.942Z,100.00
2019-02-21T22:21:18.880Z,100.00
2019-02-21T22:23:53.785Z,100.00
2019-02-21T22:26:22.695Z,100.00
2019-02-21T22:28:51.537Z,100.00
2019-02-21T22:31:20.229Z,100.00
2019-02-21T22:33:49.063Z,100.00
2019-02-21T22:36:19.512Z,100.00
2019-02-21T22:38:48.227Z,100.00
2019-02-21T22:41:16.977Z,100.00
2019-02-21T22:43:45.690Z,100.00
2019-02-21T22:46:14.418Z,100.00
2019-02-21T22:48:47.160Z,100.00
2019-02-21T22:51:13.586Z,100.00
2019-02-21T22:53:42.405Z,100.00
2019-02-21T22:56:11.051Z,100.00
2019-02-21T22:58:44.969Z,100.00
2019-02-21T23:01:22.402Z,100.00
2019-02-21T23:03:54.115Z,100.00
2019-02-21T23:06:37.817Z,100.00
2019-02-21T23:09:10.096Z,100.00
2019-02-21T23:11:38.839Z,100.00
2019-02-21T23:14:07.596Z,100.00
2019-02-21T23:16:36.227Z,100.00
2019-02-21T23:19:05.256Z,100.00
2019-02-21T23:21:33.936Z,100.00
2019-02-21T23:24:02.593Z,100.00
2019-02-21T23:26:31.441Z,100.00
2019-02-21T23:29:01.019Z,100.00
2019-02-21T23:31:30.615Z,100.00
2019-02-21T23:34:01.045Z,100.00
2019-02-21T23:36:29.724Z,100.00
2019-02-21T23:38:59.458Z,100.00
2019-02-21T23:41:28.867Z,100.00
2019-02-21T23:43:57.539Z,100.00
2019-02-21T23:46:26.315Z,100.00
2019-02-21T23:48:54.911Z,100.00
2019-02-21T23:51:23.670Z,100.00
2019-02-21T23:54:02.544Z,100.00
2019-02-21T23:56:22.765Z,100.00
2019-02-21T23:58:51.487Z,100.00
